createdAt,value
2023-05-13T00:01:50.143Z,5.15
2023-05-13T00:04:19.653Z,5.13
2023-05-13T00:06:47.770Z,5.12
2023-05-13T00:09:16.117Z,5.09
2023-05-13T00:11:44.602Z,5.07
2023-05-13T00:14:13.370Z,5.07
2023-05-13T00:16:41.567Z,5.06
2023-05-13T00:19:10.048Z,5.06
2023-05-13T00:21:39.018Z,5.04
2023-05-13T00:24:08.213Z,5.01
2023-05-13T00:26:36.207Z,4.99
2023-05-13T00:29:04.250Z,4.96
2023-05-13T00:31:32.413Z,4.93
2023-05-13T00:34:01.546Z,4.91
2023-05-13T00:36:29.938Z,4.87
2023-05-13T00:38:58.399Z,4.84
2023-05-13T00:41:26.832Z,4.82
2023-05-13T00:43:58.791Z,4.79
2023-05-13T00:46:32.127Z,4.73
2023-05-13T00:49:01.322Z,4.66
2023-05-13T00:51:29.368Z,4.61
2023-05-13T00:53:59.441Z,4.61
2023-05-13T00:56:27.597Z,4.60
2023-05-13T00:58:56.114Z,4.59
2023-05-13T01:01:43.782Z,4.54
2023-05-13T01:04:38.161Z,4.48
2023-05-13T01:07:25.722Z,4.44
2023-05-13T01:10:06.603Z,4.38
2023-05-13T01:12:41.479Z,4.35
2023-05-13T01:15:14.409Z,4.33
2023-05-13T01:17:47.982Z,4.32
2023-05-13T01:20:21.735Z,4.32
2023-05-13T01:22:50.768Z,4.34
2023-05-13T01:25:19.639Z,4.34
2023-05-13T01:27:48.478Z,4.34
2023-05-13T01:30:18.110Z,4.32
2023-05-13T01:32:47.092Z,4.32
2023-05-13T01:35:17.227Z,4.31
2023-05-13T01:37:48.993Z,4.31
2023-05-13T01:40:31.041Z,4.30
2023-05-13T01:43:03.869Z,4.30
2023-05-13T01:45:33.502Z,4.30
2023-05-13T01:48:02.311Z,4.29
2023-05-13T01:50:40.268Z,4.28
2023-05-13T01:53:09.286Z,4.28
2023-05-13T01:55:38.506Z,4.25
2023-05-13T01:58:06.796Z,4.25
2023-05-13T02:00:34.935Z,4.25
2023-05-13T02:03:03.374Z,4.25
2023-05-13T02:05:33.291Z,4.26
2023-05-13T02:08:02.591Z,4.28
2023-05-13T02:10:32.829Z,4.29
2023-05-13T02:13:02.056Z,4.30
2023-05-13T02:15:30.293Z,4.30
2023-05-13T02:17:58.406Z,4.30
2023-05-13T02:20:27.409Z,4.30
2023-05-13T02:22:56.083Z,4.30
2023-05-13T02:25:24.169Z,4.31
2023-05-13T02:27:52.789Z,4.32
2023-05-13T02:30:22.150Z,4.32
2023-05-13T02:32:50.416Z,4.32
2023-05-13T02:35:19.390Z,4.31
2023-05-13T02:37:47.659Z,4.30
2023-05-13T02:40:17.156Z,4.31
2023-05-13T02:42:46.869Z,4.31
2023-05-13T02:45:15.528Z,4.31
2023-05-13T02:47:45.079Z,4.32
2023-05-13T02:50:13.589Z,4.33
2023-05-13T02:52:42.523Z,4.33
2023-05-13T02:55:11.887Z,4.33
2023-05-13T02:57:40.349Z,4.32
2023-05-13T03:00:09.445Z,4.33
2023-05-13T03:02:38.089Z,4.34
2023-05-13T03:05:06.885Z,4.37
2023-05-13T03:07:35.419Z,4.45
2023-05-13T03:10:03.728Z,4.51
2023-05-13T03:12:32.054Z,4.55
2023-05-13T03:15:00.201Z,4.58
2023-05-13T03:17:30.985Z,4.61
2023-05-13T03:19:59.385Z,4.63
2023-05-13T03:22:27.680Z,4.65
2023-05-13T03:24:57.369Z,4.74
2023-05-13T03:27:27.207Z,4.87
2023-05-13T03:29:55.408Z,5.06
2023-05-13T03:32:30.711Z,5.31
2023-05-13T03:35:01.088Z,5.50
2023-05-13T03:37:30.191Z,5.68
2023-05-13T03:39:58.626Z,5.88
2023-05-13T03:42:26.874Z,6.06
2023-05-13T03:44:59.994Z,6.23
2023-05-13T03:47:28.367Z,6.45
2023-05-13T03:49:59.337Z,6.67
2023-05-13T03:52:27.669Z,6.94
2023-05-13T03:54:55.788Z,7.13
2023-05-13T03:57:24.320Z,7.32
2023-05-13T03:59:52.350Z,7.49
2023-05-13T04:02:45.658Z,7.69
2023-05-13T04:05:14.444Z,7.82
2023-05-13T04:07:42.660Z,7.84
2023-05-13T04:10:14.571Z,7.87
2023-05-13T04:12:43.626Z,7.95
2023-05-13T04:15:12.932Z,8.00
2023-05-13T04:17:41.944Z,8.06
2023-05-13T04:20:10.415Z,8.11
2023-05-13T04:22:38.411Z,8.18
2023-05-13T04:25:07.440Z,8.30
2023-05-13T04:27:36.285Z,8.57
2023-05-13T04:34:37.493Z,8.78
2023-05-13T04:37:05.988Z,8.87
2023-05-13T04:39:34.127Z,8.94
2023-05-13T04:42:02.502Z,8.95
2023-05-13T04:44:31.322Z,8.95
2023-05-13T04:46:59.829Z,8.99
2023-05-13T04:49:28.040Z,9.04
2023-05-13T04:51:57.491Z,9.45
2023-05-13T04:54:25.963Z,9.86
2023-05-13T04:56:54.044Z,10.06
2023-05-13T04:59:23.561Z,10.22
2023-05-13T05:01:51.652Z,10.76
2023-05-13T05:04:20.003Z,12.15
2023-05-13T05:06:48.815Z,13.95
2023-05-13T05:09:19.033Z,15.94
2023-05-13T05:11:50.746Z,17.23
2023-05-13T05:14:20.922Z,17.95
2023-05-13T05:16:50.943Z,18.58
2023-05-13T05:19:24.821Z,18.86
2023-05-13T05:21:54.732Z,19.09
2023-05-13T05:24:22.713Z,19.46
2023-05-13T05:26:50.780Z,19.86
2023-05-13T05:29:19.000Z,20.20
2023-05-13T05:31:47.611Z,20.12
2023-05-13T05:34:16.012Z,20.08
2023-05-13T05:36:44.719Z,19.96
2023-05-13T05:39:14.156Z,20.03
2023-05-13T05:41:42.236Z,20.29
2023-05-13T05:44:13.527Z,20.46
2023-05-13T05:46:42.171Z,20.97
2023-05-13T05:49:10.156Z,21.51
2023-05-13T05:51:39.060Z,21.74
2023-05-13T05:54:08.616Z,22.01
2023-05-13T05:56:37.997Z,22.27
2023-05-13T05:59:07.586Z,22.23
2023-05-13T06:01:37.031Z,22.35
2023-05-13T06:04:05.729Z,22.79
2023-05-13T06:06:33.987Z,23.17
2023-05-13T06:09:03.184Z,23.31
2023-05-13T06:11:31.128Z,23.48
2023-05-13T06:13:59.189Z,23.84
2023-05-13T06:16:28.402Z,24.34
2023-05-13T06:18:56.443Z,24.95
2023-05-13T06:21:25.219Z,25.45
2023-05-13T06:23:53.704Z,25.76
2023-05-13T06:26:22.648Z,26.09
2023-05-13T06:28:50.944Z,26.35
2023-05-13T06:31:19.022Z,26.57
2023-05-13T06:33:47.763Z,26.67
2023-05-13T06:36:15.847Z,26.70
2023-05-13T06:38:44.118Z,26.82
2023-05-13T06:41:12.816Z,26.86
2023-05-13T06:43:41.592Z,27.07
2023-05-13T06:46:16.949Z,27.28
2023-05-13T06:48:45.916Z,27.48
2023-05-13T06:51:13.959Z,27.73
2023-05-13T06:53:41.891Z,27.64
2023-05-13T06:56:09.839Z,27.61
2023-05-13T06:58:37.710Z,27.76
2023-05-13T07:01:05.854Z,27.99
2023-05-13T07:03:34.117Z,28.16
2023-05-13T07:06:02.080Z,28.43
2023-05-13T07:08:30.130Z,28.33
2023-05-13T07:10:58.049Z,28.36
2023-05-13T07:13:26.535Z,28.42
2023-05-13T07:15:54.940Z,28.46
2023-05-13T07:18:23.755Z,28.58
2023-05-13T07:20:52.609Z,28.68
2023-05-13T07:23:21.223Z,28.66
2023-05-13T07:25:51.543Z,28.24
2023-05-13T07:28:20.864Z,27.66
2023-05-13T07:30:48.834Z,27.41
2023-05-13T07:33:16.736Z,27.56
2023-05-13T07:35:45.126Z,27.42
2023-05-13T07:38:13.154Z,27.51
2023-05-13T07:40:41.888Z,27.16
2023-05-13T07:43:10.838Z,26.99
2023-05-13T07:45:39.367Z,26.99
2023-05-13T07:48:07.481Z,26.73
2023-05-13T07:50:35.488Z,26.41
2023-05-13T07:53:03.391Z,26.39
2023-05-13T07:55:31.493Z,26.46
2023-05-13T07:57:59.426Z,26.45
2023-05-13T08:00:27.439Z,26.46
2023-05-13T08:02:56.271Z,26.47
2023-05-13T08:05:24.585Z,26.40
2023-05-13T08:07:52.424Z,25.99
2023-05-13T08:10:20.477Z,25.76
2023-05-13T08:12:52.323Z,25.66
2023-05-13T08:15:20.336Z,25.59
2023-05-13T08:17:49.249Z,25.34
2023-05-13T08:20:17.095Z,24.94
2023-05-13T08:22:44.987Z,24.67
2023-05-13T08:25:13.134Z,24.31
2023-05-13T08:27:41.157Z,23.91
2023-05-13T08:30:09.355Z,23.86
2023-05-13T08:32:37.465Z,24.03
2023-05-13T08:35:05.695Z,24.07
2023-05-13T08:37:33.674Z,23.92
2023-05-13T08:40:01.725Z,23.98
2023-05-13T08:42:32.508Z,24.11
2023-05-13T08:45:04.137Z,24.30
2023-05-13T08:47:46.715Z,24.44
2023-05-13T08:50:14.894Z,24.34
2023-05-13T08:52:43.758Z,24.13
2023-05-13T08:55:12.740Z,23.86
2023-05-13T08:57:41.597Z,23.65
2023-05-13T09:00:11.539Z,23.63
2023-05-13T09:02:39.537Z,23.66
2023-05-13T09:05:09.378Z,23.63
2023-05-13T09:07:38.980Z,23.64
2023-05-13T09:10:07.665Z,23.66
2023-05-13T09:12:41.926Z,23.79
2023-05-13T09:15:11.221Z,23.91
2023-05-13T09:17:43.005Z,23.73
2023-05-13T09:20:13.258Z,23.60
2023-05-13T09:22:41.941Z,23.55
2023-05-13T09:25:12.043Z,23.22
2023-05-13T09:27:42.088Z,22.96
2023-05-13T09:30:10.926Z,22.89
2023-05-13T09:32:39.518Z,22.85
2023-05-13T09:35:17.550Z,22.80
2023-05-13T09:37:49.339Z,22.95
2023-05-13T09:40:18.041Z,23.19
2023-05-13T09:42:46.576Z,23.40
2023-05-13T09:45:16.167Z,23.55
2023-05-13T09:47:44.682Z,23.72
2023-05-13T09:50:13.783Z,23.82
2023-05-13T09:52:41.791Z,23.68
2023-05-13T09:55:10.040Z,23.47
2023-05-13T09:57:39.435Z,23.50
2023-05-13T10:00:12.819Z,23.40
2023-05-13T10:02:46.287Z,23.13
2023-05-13T10:05:14.756Z,22.78
2023-05-13T10:07:43.626Z,22.45
2023-05-13T10:10:12.036Z,22.30
2023-05-13T10:12:41.442Z,22.47
2023-05-13T10:15:10.392Z,22.72
2023-05-13T10:17:39.802Z,22.96
2023-05-13T10:20:08.145Z,23.10
2023-05-13T10:22:37.287Z,22.97
2023-05-13T10:25:05.567Z,22.76
2023-05-13T10:27:33.922Z,22.48
2023-05-13T10:30:03.892Z,22.43
2023-05-13T10:32:32.229Z,22.66
2023-05-13T10:35:20.279Z,22.93
2023-05-13T10:37:54.490Z,23.19
2023-05-13T10:40:29.562Z,23.51
2023-05-13T10:43:17.311Z,23.49
2023-05-13T10:45:56.238Z,23.27
2023-05-13T10:48:24.753Z,23.33
2023-05-13T10:50:57.332Z,23.28
2023-05-13T10:53:28.276Z,23.17
2023-05-13T10:55:56.900Z,23.14
2023-05-13T10:58:35.272Z,22.97
2023-05-13T11:04:56.412Z,22.44
2023-05-13T11:07:25.746Z,22.35
2023-05-13T11:09:56.155Z,22.26
2023-05-13T11:12:24.040Z,22.14
2023-05-13T11:14:55.959Z,22.12
2023-05-13T11:17:24.662Z,22.14
2023-05-13T11:19:53.383Z,22.05
2023-05-13T11:22:22.553Z,21.90
2023-05-13T11:25:11.154Z,21.75
2023-05-13T11:27:40.557Z,21.76
2023-05-13T11:30:21.155Z,22.02
2023-05-13T11:32:58.456Z,22.32
2023-05-13T11:35:28.282Z,22.54
2023-05-13T11:37:59.627Z,22.77
2023-05-13T11:40:32.199Z,22.89
2023-05-13T11:43:00.988Z,22.82
2023-05-13T11:45:29.451Z,22.61
2023-05-13T11:47:57.950Z,22.53
2023-05-13T11:50:30.508Z,22.54
2023-05-13T11:52:59.784Z,22.62
2023-05-13T11:55:28.966Z,22.81
2023-05-13T11:57:57.284Z,23.01
2023-05-13T12:00:26.407Z,23.21
2023-05-13T12:02:54.736Z,23.36
2023-05-13T12:05:26.487Z,23.38
2023-05-13T12:07:58.302Z,23.29
2023-05-13T12:10:26.455Z,23.02
2023-05-13T12:12:54.863Z,22.78
2023-05-13T12:15:23.428Z,22.67
2023-05-13T12:17:52.582Z,22.62
2023-05-13T12:20:21.604Z,22.56
2023-05-13T12:22:50.830Z,22.49
2023-05-13T12:25:36.926Z,22.45
2023-05-13T12:28:09.301Z,22.48
2023-05-13T12:30:38.075Z,22.71
2023-05-13T12:33:06.440Z,23.03
2023-05-13T12:35:34.852Z,23.29
2023-05-13T12:38:04.196Z,23.35
2023-05-13T12:40:32.659Z,23.29
2023-05-13T12:43:01.529Z,23.11
2023-05-13T12:45:30.759Z,22.77
2023-05-13T12:47:59.325Z,22.43
2023-05-13T12:50:27.386Z,22.20
2023-05-13T12:52:55.551Z,22.18
2023-05-13T12:55:24.314Z,22.26
2023-05-13T12:58:03.052Z,22.43
2023-05-13T13:00:31.161Z,22.51
2023-05-13T13:02:59.207Z,22.58
2023-05-13T13:05:27.374Z,22.63
2023-05-13T13:07:55.437Z,22.77
2023-05-13T13:10:23.300Z,22.98
2023-05-13T13:12:51.272Z,23.14
2023-05-13T13:15:19.488Z,23.20
2023-05-13T13:17:47.680Z,23.22
2023-05-13T13:20:15.595Z,23.22
2023-05-13T13:22:43.478Z,23.15
2023-05-13T13:25:11.871Z,23.07
2023-05-13T13:27:40.105Z,23.10
2023-05-13T13:30:08.526Z,23.17
2023-05-13T13:32:36.499Z,23.21
2023-05-13T13:35:05.740Z,23.22
2023-05-13T13:37:35.459Z,23.16
2023-05-13T13:40:05.046Z,23.05
2023-05-13T13:42:43.213Z,22.80
2023-05-13T13:45:13.705Z,22.62
2023-05-13T13:47:42.073Z,22.55
2023-05-13T13:50:10.504Z,22.49
2023-05-13T13:52:38.430Z,22.49
2023-05-13T13:55:06.745Z,22.51
2023-05-13T13:57:34.800Z,22.53
2023-05-13T14:00:02.849Z,22.52
2023-05-13T14:02:36.885Z,22.44
2023-05-13T14:05:05.051Z,22.41
2023-05-13T14:07:33.233Z,22.39
2023-05-13T14:10:01.601Z,22.42
2023-05-13T14:12:29.870Z,22.46
2023-05-13T14:14:58.387Z,22.48
2023-05-13T14:17:26.375Z,22.51
2023-05-13T14:19:55.689Z,22.57
2023-05-13T14:22:24.014Z,22.65
2023-05-13T14:24:52.714Z,22.71
2023-05-13T14:27:21.937Z,22.72
2023-05-13T14:29:50.189Z,22.74
2023-05-13T14:32:18.140Z,22.77
2023-05-13T14:34:46.368Z,22.77
2023-05-13T14:37:14.287Z,22.71
2023-05-13T14:39:42.459Z,22.62
2023-05-13T14:42:11.888Z,22.49
2023-05-13T14:44:41.603Z,22.40
2023-05-13T14:47:10.624Z,22.32
2023-05-13T14:49:39.277Z,22.24
2023-05-13T14:52:07.319Z,22.15
2023-05-13T14:54:36.930Z,22.08
2023-05-13T14:57:06.070Z,22.00
2023-05-13T14:59:34.456Z,21.96
2023-05-13T15:02:02.950Z,21.94
2023-05-13T15:04:30.986Z,21.96
2023-05-13T15:06:59.530Z,21.95
2023-05-13T15:09:27.656Z,21.91
2023-05-13T15:11:55.657Z,21.86
2023-05-13T15:14:26.108Z,21.82
2023-05-13T15:16:54.349Z,21.80
2023-05-13T15:19:22.701Z,21.77
2023-05-13T15:21:51.648Z,21.72
2023-05-13T15:24:19.803Z,21.68
2023-05-13T15:26:48.552Z,21.64
2023-05-13T15:29:16.942Z,21.61
2023-05-13T15:31:45.061Z,21.57
2023-05-13T15:34:13.040Z,21.53
2023-05-13T15:36:41.134Z,21.53
2023-05-13T15:39:11.289Z,21.52
2023-05-13T15:41:39.341Z,21.53
2023-05-13T15:44:07.477Z,21.53
2023-05-13T15:46:35.705Z,21.50
2023-05-13T15:49:03.841Z,21.50
2023-05-13T15:51:32.027Z,21.51
2023-05-13T15:54:03.000Z,21.51
2023-05-13T15:56:31.032Z,21.47
2023-05-13T15:58:59.080Z,21.43
2023-05-13T16:01:27.110Z,21.37
2023-05-13T16:03:55.037Z,21.32
2023-05-13T16:06:23.307Z,21.27
2023-05-13T16:08:51.244Z,21.25
2023-05-13T16:11:19.230Z,21.25
2023-05-13T16:13:47.306Z,21.24
2023-05-13T16:16:15.625Z,21.23
2023-05-13T16:18:43.633Z,21.20
2023-05-13T16:21:12.172Z,21.20
2023-05-13T16:23:40.389Z,21.18
2023-05-13T16:26:08.314Z,21.16
2023-05-13T16:28:36.223Z,21.16
2023-05-13T16:31:04.614Z,21.16
2023-05-13T16:33:33.878Z,21.13
2023-05-13T16:36:01.852Z,21.03
2023-05-13T16:38:30.496Z,20.90
2023-05-13T16:40:58.481Z,20.82
2023-05-13T16:43:26.622Z,20.72
2023-05-13T16:45:54.515Z,20.67
2023-05-13T16:48:23.618Z,20.58
2023-05-13T16:50:52.053Z,20.49
2023-05-13T16:53:22.348Z,20.38
2023-05-13T16:55:50.518Z,20.31
2023-05-13T16:58:18.666Z,20.25
2023-05-13T17:00:46.629Z,20.19
2023-05-13T17:03:15.069Z,20.13
2023-05-13T17:05:43.813Z,20.07
2023-05-13T17:08:11.701Z,20.01
2023-05-13T17:10:39.709Z,19.96
2023-05-13T17:13:07.659Z,19.89
2023-05-13T17:15:35.839Z,19.87
2023-05-13T17:18:03.834Z,19.86
2023-05-13T17:20:31.800Z,19.86
2023-05-13T17:22:59.759Z,19.86
2023-05-13T17:25:27.700Z,19.83
2023-05-13T17:27:55.541Z,19.82
2023-05-13T17:30:23.846Z,19.80
2023-05-13T17:32:52.007Z,19.78
2023-05-13T17:35:20.234Z,19.72
2023-05-13T17:37:48.352Z,19.63
2023-05-13T17:40:16.400Z,19.49
2023-05-13T17:42:44.511Z,19.32
2023-05-13T17:45:12.872Z,19.15
2023-05-13T17:47:44.090Z,18.99
2023-05-13T17:50:14.500Z,18.85
2023-05-13T17:52:42.567Z,18.78
2023-05-13T17:55:10.727Z,18.88
2023-05-13T17:57:39.073Z,18.95
2023-05-13T18:00:07.735Z,18.92
2023-05-13T18:02:36.536Z,18.81
2023-05-13T18:05:06.401Z,18.69
2023-05-13T18:07:34.583Z,18.58
2023-05-13T18:10:02.993Z,18.46
2023-05-13T18:12:31.151Z,18.38
2023-05-13T18:14:59.208Z,18.25
2023-05-13T18:17:27.797Z,18.11
2023-05-13T18:19:55.971Z,17.98
2023-05-13T18:22:24.048Z,17.82
2023-05-13T18:24:52.285Z,17.68
2023-05-13T18:27:21.713Z,17.53
2023-05-13T18:29:50.419Z,17.40
2023-05-13T18:32:18.453Z,17.27
2023-05-13T18:34:46.545Z,17.15
2023-05-13T18:37:15.262Z,17.03
2023-05-13T18:39:45.925Z,16.90
2023-05-13T18:42:13.906Z,16.76
2023-05-13T18:44:42.172Z,16.62
2023-05-13T18:47:11.477Z,16.47
2023-05-13T18:49:39.501Z,16.32
2023-05-13T18:52:07.537Z,16.15
2023-05-13T18:54:36.219Z,15.91
2023-05-13T18:57:04.608Z,15.73
2023-05-13T18:59:33.313Z,15.58
2023-05-13T19:04:38.726Z,15.27
2023-05-13T19:07:06.937Z,15.08
2023-05-13T19:09:35.994Z,14.90
2023-05-13T19:12:04.214Z,14.71
2023-05-13T19:14:32.900Z,14.52
2023-05-13T19:17:01.436Z,14.33
2023-05-13T19:19:29.434Z,14.15
2023-05-13T19:21:57.460Z,13.97
2023-05-13T19:24:25.492Z,13.77
2023-05-13T19:26:53.634Z,13.58
2023-05-13T19:29:22.668Z,13.39
2023-05-13T19:31:51.090Z,13.20
2023-05-13T19:34:19.266Z,13.01
2023-05-13T19:36:47.394Z,12.83
2023-05-13T19:39:15.573Z,12.66
2023-05-13T19:41:50.705Z,12.48
2023-05-13T19:44:18.776Z,12.29
2023-05-13T19:46:47.237Z,12.14
2023-05-13T19:49:15.836Z,11.99
2023-05-13T19:51:44.280Z,11.83
2023-05-13T19:54:13.666Z,11.69
2023-05-13T19:56:41.894Z,11.55
2023-05-13T19:59:11.401Z,11.43
2023-05-13T20:01:40.142Z,11.30
2023-05-13T20:04:09.168Z,11.17
2023-05-13T20:06:37.180Z,11.04
2023-05-13T20:09:06.599Z,10.93
2023-05-13T20:11:36.387Z,10.83
2023-05-13T20:14:04.645Z,10.73
2023-05-13T20:16:32.898Z,10.63
2023-05-13T20:19:00.988Z,10.52
2023-05-13T20:21:29.274Z,10.43
2023-05-13T20:23:57.406Z,10.35
2023-05-13T20:26:25.921Z,10.25
2023-05-13T20:28:54.050Z,10.17
2023-05-13T20:31:24.014Z,10.10
2023-05-13T20:33:52.181Z,10.00
2023-05-13T20:36:20.167Z,9.91
2023-05-13T20:39:13.964Z,9.83
2023-05-13T20:41:42.068Z,9.73
2023-05-13T20:44:12.663Z,9.66
2023-05-13T20:46:40.864Z,9.58
2023-05-13T20:49:09.191Z,9.49
2023-05-13T20:51:37.859Z,9.41
2023-05-13T20:54:08.991Z,9.32
2023-05-13T20:56:37.100Z,9.24
2023-05-13T20:59:05.989Z,9.17
2023-05-13T21:01:35.434Z,9.09
2023-05-13T21:04:06.135Z,9.02
2023-05-13T21:06:34.196Z,8.95
2023-05-13T21:09:02.181Z,8.88
2023-05-13T21:11:30.475Z,8.83
2023-05-13T21:13:58.644Z,8.78
2023-05-13T21:16:26.805Z,8.72
2023-05-13T21:18:54.831Z,8.67
2023-05-13T21:21:23.375Z,8.61
2023-05-13T21:23:51.418Z,8.54
2023-05-13T21:26:21.945Z,8.47
2023-05-13T21:28:50.029Z,8.40
2023-05-13T21:31:17.982Z,8.33
2023-05-13T21:33:46.367Z,8.27
2023-05-13T21:36:15.477Z,8.21
2023-05-13T21:38:43.453Z,8.16
2023-05-13T21:41:13.133Z,8.12
2023-05-13T21:43:42.334Z,8.10
2023-05-13T21:46:10.257Z,8.06
2023-05-13T21:48:40.457Z,8.03
2023-05-13T21:51:08.824Z,7.98
2023-05-13T21:53:38.203Z,7.93
2023-05-13T21:56:07.402Z,7.87
2023-05-13T21:58:36.574Z,7.84
2023-05-13T22:01:04.841Z,7.82
2023-05-13T22:03:32.870Z,7.77
2023-05-13T22:06:02.503Z,7.72
2023-05-13T22:08:30.538Z,7.67
2023-05-13T22:11:01.408Z,7.63
2023-05-13T22:13:29.510Z,7.58
2023-05-13T22:15:57.928Z,7.55
2023-05-13T22:18:26.133Z,7.51
2023-05-13T22:20:55.815Z,7.47
2023-05-13T22:23:24.186Z,7.42
2023-05-13T22:25:52.323Z,7.37
2023-05-13T22:28:22.717Z,7.34
2023-05-13T22:30:55.412Z,7.31
2023-05-13T22:33:24.714Z,7.28
2023-05-13T22:35:52.831Z,7.26
2023-05-13T22:38:20.845Z,7.22
2023-05-13T22:40:52.152Z,7.18
2023-05-13T22:43:20.413Z,7.13
2023-05-13T22:45:48.422Z,7.08
2023-05-13T22:48:18.416Z,7.03
2023-05-13T22:50:46.483Z,7.00
2023-05-13T22:53:14.783Z,6.96
2023-05-13T22:55:42.841Z,6.92
2023-05-13T22:58:12.048Z,6.88
2023-05-13T23:00:40.973Z,6.85
2023-05-13T23:03:09.044Z,6.83
2023-05-13T23:05:37.143Z,6.80
2023-05-13T23:08:05.830Z,6.78
2023-05-13T23:10:33.887Z,6.74
2023-05-13T23:13:05.929Z,6.72
2023-05-13T23:15:36.832Z,6.69
2023-05-13T23:18:05.915Z,6.66
2023-05-13T23:20:34.180Z,6.62
2023-05-13T23:23:02.384Z,6.61
2023-05-13T23:25:30.390Z,6.59
2023-05-13T23:27:58.436Z,6.57
2023-05-13T23:30:27.406Z,6.56
2023-05-13T23:32:55.476Z,6.53
2023-05-13T23:35:24.351Z,6.51
2023-05-13T23:37:53.058Z,6.48
2023-05-13T23:40:21.762Z,6.45
2023-05-13T23:42:50.020Z,6.44
2023-05-13T23:45:18.102Z,6.42
2023-05-13T23:47:46.291Z,6.39
2023-05-13T23:50:41.600Z,6.37
2023-05-13T23:53:09.858Z,6.35
2023-05-13T23:55:38.112Z,6.32
2023-05-13T23:58:06.316Z,6.30
